sensor_id;sensor_type;location;lat;lon;timestamp;temperature;humidity
40368;DHT22;26075;43.320;21.920;2023-08-30T00:07:09;25.90;66.70
40368;DHT22;26075;43.320;21.920;2023-08-30T00:12:11;25.50;59.60
40368;DHT22;26075;43.320;21.920;2023-08-30T00:37:16;25.20;67.20
40368;DHT22;26075;43.320;21.920;2023-08-30T00:42:16;25.20;68.50
40368;DHT22;26075;43.320;21.920;2023-08-30T00:47:17;25.20;68.10
40368;DHT22;26075;43.320;21.920;2023-08-30T00:52:18;25.30;68.60
40368;DHT22;26075;43.320;21.920;2023-08-30T01:02:20;25.10;59.40
40368;DHT22;26075;43.320;21.920;2023-08-30T01:07:24;25.00;59.40
40368;DHT22;26075;43.320;21.920;2023-08-30T01:13:02;25.30;67.70
40368;DHT22;26075;43.320;21.920;2023-08-30T01:18:05;24.70;67.00
40368;DHT22;26075;43.320;21.920;2023-08-30T01:23:24;25.10;59.10
40368;DHT22;26075;43.320;21.920;2023-08-30T01:28:59;25.10;59.60
40368;DHT22;26075;43.320;21.920;2023-08-30T01:34:02;25.20;59.10
40368;DHT22;26075;43.320;21.920;2023-08-30T01:39:03;25.20;68.00
40368;DHT22;26075;43.320;21.920;2023-08-30T01:44:06;25.20;58.80
40368;DHT22;26075;43.320;21.920;2023-08-30T01:49:09;25.30;68.20
40368;DHT22;26075;43.320;21.920;2023-08-30T01:54:13;25.10;67.50
40368;DHT22;26075;43.320;21.920;2023-08-30T01:59:17;25.20;59.40
40368;DHT22;26075;43.320;21.920;2023-08-30T02:14:39;24.70;67.20
40368;DHT22;26075;43.320;21.920;2023-08-30T02:19:47;24.70;65.40
40368;DHT22;26075;43.320;21.920;2023-08-30T02:29:49;24.70;58.80
40368;DHT22;26075;43.320;21.920;2023-08-30T02:34:52;24.60;59.70
40368;DHT22;26075;43.320;21.920;2023-08-30T02:39:53;24.60;68.00
40368;DHT22;26075;43.320;21.920;2023-08-30T02:49:55;24.20;59.70
40368;DHT22;26075;43.320;21.920;2023-08-30T02:59:57;24.10;60.10
40368;DHT22;26075;43.320;21.920;2023-08-30T03:04:57;24.00;67.50
40368;DHT22;26075;43.320;21.920;2023-08-30T03:10:06;24.30;68.00
40368;DHT22;26075;43.320;21.920;2023-08-30T03:15:07;24.10;60.70
40368;DHT22;26075;43.320;21.920;2023-08-30T03:20:08;24.10;60.10
40368;DHT22;26075;43.320;21.920;2023-08-30T03:30:10;24.00;68.10
40368;DHT22;26075;43.320;21.920;2023-08-30T03:40:12;24.10;60.20
40368;DHT22;26075;43.320;21.920;2023-08-30T03:50:14;24.30;67.70
40368;DHT22;26075;43.320;21.920;2023-08-30T04:00:16;24.30;67.70
40368;DHT22;26075;43.320;21.920;2023-08-30T04:05:17;24.30;67.60
40368;DHT22;26075;43.320;21.920;2023-08-30T04:10:17;24.10;67.50
40368;DHT22;26075;43.320;21.920;2023-08-30T04:15:18;24.00;67.60
40368;DHT22;26075;43.320;21.920;2023-08-30T04:20:19;24.20;67.90
40368;DHT22;26075;43.320;21.920;2023-08-30T04:30:21;24.00;67.70
40368;DHT22;26075;43.320;21.920;2023-08-30T04:40:23;24.30;67.80
40368;DHT22;26075;43.320;21.920;2023-08-30T04:50:25;24.10;68.40
40368;DHT22;26075;43.320;21.920;2023-08-30T04:55:28;24.20;59.80
40368;DHT22;26075;43.320;21.920;2023-08-30T05:00:30;24.10;67.90
40368;DHT22;26075;43.320;21.920;2023-08-30T05:10:32;24.40;59.50
40368;DHT22;26075;43.320;21.920;2023-08-30T05:15:33;24.50;66.60
40368;DHT22;26075;43.320;21.920;2023-08-30T05:20:34;24.70;66.60
40368;DHT22;26075;43.320;21.920;2023-08-30T05:25:35;24.70;66.70
40368;DHT22;26075;43.320;21.920;2023-08-30T05:30:36;24.50;59.80
40368;DHT22;26075;43.320;21.920;2023-08-30T05:35:37;24.40;66.60
40368;DHT22;26075;43.320;21.920;2023-08-30T05:40:38;24.60;66.30
40368;DHT22;26075;43.320;21.920;2023-08-30T05:50:55;24.70;59.00
40368;DHT22;26075;43.320;21.920;2023-08-30T06:00:59;24.60;67.20
40368;DHT22;26075;43.320;21.920;2023-08-30T06:06:03;24.50;65.70
40368;DHT22;26075;43.320;21.920;2023-08-30T06:11:04;24.60;65.60
40368;DHT22;26075;43.320;21.920;2023-08-30T06:16:05;24.90;58.70
40368;DHT22;26075;43.320;21.920;2023-08-30T06:21:05;25.00;65.80
40368;DHT22;26075;43.320;21.920;2023-08-30T06:26:06;25.10;65.50
40368;DHT22;26075;43.320;21.920;2023-08-30T06:36:08;25.00;58.50
40368;DHT22;26075;43.320;21.920;2023-08-30T06:41:11;25.40;67.30
40368;DHT22;26075;43.320;21.920;2023-08-30T06:51:13;25.20;65.20
40368;DHT22;26075;43.320;21.920;2023-08-30T06:56:14;25.30;64.90
40368;DHT22;26075;43.320;21.920;2023-08-30T07:01:15;25.40;64.90
40368;DHT22;26075;43.320;21.920;2023-08-30T07:06:16;25.30;58.50
40368;DHT22;26075;43.320;21.920;2023-08-30T07:11:22;25.60;64.40
40368;DHT22;26075;43.320;21.920;2023-08-30T07:21:26;25.70;57.60
40368;DHT22;26075;43.320;21.920;2023-08-30T07:26:33;25.80;64.30
40368;DHT22;26075;43.320;21.920;2023-08-30T07:31:34;25.90;65.60
40368;DHT22;26075;43.320;21.920;2023-08-30T07:36:35;25.70;63.70
40368;DHT22;26075;43.320;21.920;2023-08-30T07:41:41;25.80;63.70
40368;DHT22;26075;43.320;21.920;2023-08-30T07:51:53;25.90;56.90
40368;DHT22;26075;43.320;21.920;2023-08-30T07:56:53;26.00;57.40
40368;DHT22;26075;43.320;21.920;2023-08-30T08:01:56;26.00;62.90
40368;DHT22;26075;43.320;21.920;2023-08-30T08:11:58;26.20;55.90
40368;DHT22;26075;43.320;21.920;2023-08-30T08:16:59;26.30;55.60
40368;DHT22;26075;43.320;21.920;2023-08-30T08:22:00;26.40;56.20
40368;DHT22;26075;43.320;21.920;2023-08-30T08:27:01;26.60;61.40
40368;DHT22;26075;43.320;21.920;2023-08-30T08:32:02;26.30;61.40
40368;DHT22;26075;43.320;21.920;2023-08-30T08:37:03;26.90;63.00
40368;DHT22;26075;43.320;21.920;2023-08-30T08:47:05;26.60;60.80
40368;DHT22;26075;43.320;21.920;2023-08-30T08:57:07;27.00;53.10
40368;DHT22;26075;43.320;21.920;2023-08-30T09:02:11;26.90;53.90
40368;DHT22;26075;43.320;21.920;2023-08-30T09:12:13;27.10;58.50
40368;DHT22;26075;43.320;21.920;2023-08-30T09:22:16;27.10;52.00
40368;DHT22;26075;43.320;21.920;2023-08-30T09:27:18;27.10;52.50
40368;DHT22;26075;43.320;21.920;2023-08-30T09:32:21;27.00;51.40
40368;DHT22;26075;43.320;21.920;2023-08-30T09:37:23;27.10;57.40
40368;DHT22;26075;43.320;21.920;2023-08-30T09:42:24;26.90;58.30
40368;DHT22;26075;43.320;21.920;2023-08-30T09:47:25;27.00;51.50
40368;DHT22;26075;43.320;21.920;2023-08-30T09:52:30;27.00;56.70
40368;DHT22;26075;43.320;21.920;2023-08-30T10:02:32;27.20;49.60
40368;DHT22;26075;43.320;21.920;2023-08-30T10:07:36;27.40;55.80
40368;DHT22;26075;43.320;21.920;2023-08-30T10:12:39;27.20;49.50
40368;DHT22;26075;43.320;21.920;2023-08-30T10:17:45;27.20;48.80
40368;DHT22;26075;43.320;21.920;2023-08-30T10:22:47;27.10;48.30
40368;DHT22;26075;43.320;21.920;2023-08-30T10:27:50;27.00;48.70
40368;DHT22;26075;43.320;21.920;2023-08-30T10:32:51;27.10;49.00
40368;DHT22;26075;43.320;21.920;2023-08-30T10:37:56;27.10;49.10
40368;DHT22;26075;43.320;21.920;2023-08-30T10:43:04;26.80;54.60
40368;DHT22;26075;43.320;21.920;2023-08-30T10:48:05;27.20;48.70
40368;DHT22;26075;43.320;21.920;2023-08-30T10:53:13;27.20;48.10
40368;DHT22;26075;43.320;21.920;2023-08-30T10:58:15;27.20;48.60
40368;DHT22;26075;43.320;21.920;2023-08-30T11:03:16;28.00;55.00
40368;DHT22;26075;43.320;21.920;2023-08-30T11:08:24;27.40;48.50
40368;DHT22;26075;43.320;21.920;2023-08-30T11:13:24;27.50;53.80
40368;DHT22;26075;43.320;21.920;2023-08-30T11:18:30;27.50;47.70
40368;DHT22;26075;43.320;21.920;2023-08-30T11:23:36;27.70;48.10
40368;DHT22;26075;43.320;21.920;2023-08-30T11:28:37;27.20;53.20
40368;DHT22;26075;43.320;21.920;2023-08-30T11:33:50;27.40;47.30
40368;DHT22;26075;43.320;21.920;2023-08-30T11:38:51;27.50;53.50
40368;DHT22;26075;43.320;21.920;2023-08-30T11:48:54;27.40;47.10
40368;DHT22;26075;43.320;21.920;2023-08-30T11:53:55;27.50;54.90
40368;DHT22;26075;43.320;21.920;2023-08-30T11:59:04;27.50;52.60
40368;DHT22;26075;43.320;21.920;2023-08-30T12:04:10;27.50;53.80
40368;DHT22;26075;43.320;21.920;2023-08-30T12:09:14;27.80;52.40
40368;DHT22;26075;43.320;21.920;2023-08-30T12:19:17;27.70;46.10
40368;DHT22;26075;43.320;21.920;2023-08-30T12:24:18;27.80;46.60
40368;DHT22;26075;43.320;21.920;2023-08-30T12:29:19;27.80;46.30
40368;DHT22;26075;43.320;21.920;2023-08-30T12:34:20;27.80;51.40
40368;DHT22;26075;43.320;21.920;2023-08-30T12:39:21;27.80;46.10
40368;DHT22;26075;43.320;21.920;2023-08-30T12:44:22;27.80;45.90
40368;DHT22;26075;43.320;21.920;2023-08-30T12:49:22;27.80;45.80
40368;DHT22;26075;43.320;21.920;2023-08-30T12:59:24;27.70;50.10
40368;DHT22;26075;43.320;21.920;2023-08-30T13:04:39;27.40;50.10
40368;DHT22;26075;43.320;21.920;2023-08-30T13:14:41;27.60;43.80
40368;DHT22;26075;43.320;21.920;2023-08-30T13:19:43;27.60;49.60
40368;DHT22;26075;43.320;21.920;2023-08-30T13:24:45;27.60;44.00
40368;DHT22;26075;43.320;21.920;2023-08-30T13:29:47;27.60;43.90
40368;DHT22;26075;43.320;21.920;2023-08-30T13:34:50;27.50;43.90
40368;DHT22;26075;43.320;21.920;2023-08-30T13:39:52;27.60;43.90
40368;DHT22;26075;43.320;21.920;2023-08-30T13:44:54;27.70;49.40
40368;DHT22;26075;43.320;21.920;2023-08-30T13:49:55;27.60;43.90
40368;DHT22;26075;43.320;21.920;2023-08-30T13:54:56;27.40;48.90
40368;DHT22;26075;43.320;21.920;2023-08-30T13:59:57;27.50;43.90
40368;DHT22;26075;43.320;21.920;2023-08-30T14:09:58;27.80;49.30
40368;DHT22;26075;43.320;21.920;2023-08-30T14:14:59;27.50;48.80
40368;DHT22;26075;43.320;21.920;2023-08-30T14:20:06;27.50;42.80
40368;DHT22;26075;43.320;21.920;2023-08-30T14:25:08;27.30;48.90
40368;DHT22;26075;43.320;21.920;2023-08-30T14:30:09;27.50;48.70
40368;DHT22;26075;43.320;21.920;2023-08-30T14:40:11;27.70;48.50
40368;DHT22;26075;43.320;21.920;2023-08-30T14:50:24;27.30;48.00
40368;DHT22;26075;43.320;21.920;2023-08-30T15:00:26;27.70;41.90
40368;DHT22;26075;43.320;21.920;2023-08-30T15:05:27;27.70;42.50
40368;DHT22;26075;43.320;21.920;2023-08-30T15:10:27;27.70;42.50
40368;DHT22;26075;43.320;21.920;2023-08-30T15:15:28;27.60;48.00
40368;DHT22;26075;43.320;21.920;2023-08-30T15:20:53;28.00;44.90
40368;DHT22;26075;43.320;21.920;2023-08-30T15:25:55;27.50;47.80
40368;DHT22;26075;43.320;21.920;2023-08-30T15:31:03;27.60;42.50
40368;DHT22;26075;43.320;21.920;2023-08-30T15:36:04;27.70;42.60
40368;DHT22;26075;43.320;21.920;2023-08-30T15:41:08;27.60;42.60
40368;DHT22;26075;43.320;21.920;2023-08-30T15:46:11;27.60;42.10
40368;DHT22;26075;43.320;21.920;2023-08-30T15:51:12;27.30;48.10
40368;DHT22;26075;43.320;21.920;2023-08-30T15:56:13;27.70;48.40
40368;DHT22;26075;43.320;21.920;2023-08-30T16:01:14;27.50;42.90
40368;DHT22;26075;43.320;21.920;2023-08-30T16:11:20;27.10;48.60
40368;DHT22;26075;43.320;21.920;2023-08-30T16:21:27;27.30;42.70
40368;DHT22;26075;43.320;21.920;2023-08-30T16:26:28;27.30;43.40
40368;DHT22;26075;43.320;21.920;2023-08-30T16:31:34;27.20;43.60
40368;DHT22;26075;43.320;21.920;2023-08-30T16:36:35;27.20;49.50
40368;DHT22;26075;43.320;21.920;2023-08-30T16:41:36;27.00;49.20
40368;DHT22;26075;43.320;21.920;2023-08-30T16:46:38;27.30;50.90
40368;DHT22;26075;43.320;21.920;2023-08-30T16:51:39;27.00;43.90
40368;DHT22;26075;43.320;21.920;2023-08-30T16:56:39;26.90;49.60
40368;DHT22;26075;43.320;21.920;2023-08-30T17:01:40;27.00;49.50
40368;DHT22;26075;43.320;21.920;2023-08-30T17:11:51;26.80;43.60
40368;DHT22;26075;43.320;21.920;2023-08-30T17:16:52;26.80;43.90
40368;DHT22;26075;43.320;21.920;2023-08-30T17:21:53;26.60;50.70
40368;DHT22;26075;43.320;21.920;2023-08-30T17:31:56;26.70;43.90
40368;DHT22;26075;43.320;21.920;2023-08-30T17:36:57;26.80;44.70
40368;DHT22;26075;43.320;21.920;2023-08-30T17:47:00;26.70;50.30
40368;DHT22;26075;43.320;21.920;2023-08-30T17:52:01;26.80;45.00
40368;DHT22;26075;43.320;21.920;2023-08-30T18:12:08;26.90;51.20
40368;DHT22;26075;43.320;21.920;2023-08-30T18:17:08;26.80;51.90
40368;DHT22;26075;43.320;21.920;2023-08-30T18:32:11;26.50;44.90
40368;DHT22;26075;43.320;21.920;2023-08-30T18:47:15;26.30;51.10
40368;DHT22;26075;43.320;21.920;2023-08-30T19:02:22;26.50;51.50
40368;DHT22;26075;43.320;21.920;2023-08-30T19:12:23;26.00;51.80
40368;DHT22;26075;43.320;21.920;2023-08-30T19:22:25;26.20;45.40
40368;DHT22;26075;43.320;21.920;2023-08-30T19:27:26;26.30;46.30
40368;DHT22;26075;43.320;21.920;2023-08-30T19:37:29;26.10;51.60
40368;DHT22;26075;43.320;21.920;2023-08-30T19:42:32;26.20;46.20
40368;DHT22;26075;43.320;21.920;2023-08-30T19:47:33;26.10;46.40
40368;DHT22;26075;43.320;21.920;2023-08-30T19:52:34;26.10;46.50
40368;DHT22;26075;43.320;21.920;2023-08-30T19:57:41;26.10;52.20
40368;DHT22;26075;43.320;21.920;2023-08-30T20:07:51;26.00;45.90
40368;DHT22;26075;43.320;21.920;2023-08-30T20:12:52;26.10;46.80
40368;DHT22;26075;43.320;21.920;2023-08-30T20:18:03;26.10;46.10
40368;DHT22;26075;43.320;21.920;2023-08-30T20:23:05;25.90;53.50
40368;DHT22;26075;43.320;21.920;2023-08-30T20:38:08;26.10;53.30
40368;DHT22;26075;43.320;21.920;2023-08-30T20:43:10;26.10;47.00
40368;DHT22;26075;43.320;21.920;2023-08-30T20:48:29;26.10;47.00
40368;DHT22;26075;43.320;21.920;2023-08-30T20:53:39;26.00;52.70
40368;DHT22;26075;43.320;21.920;2023-08-30T20:58:43;26.20;46.70
40368;DHT22;26075;43.320;21.920;2023-08-30T21:03:44;25.90;52.70
40368;DHT22;26075;43.320;21.920;2023-08-30T21:08:46;26.10;47.40
40368;DHT22;26075;43.320;21.920;2023-08-30T21:13:48;25.60;53.60
40368;DHT22;26075;43.320;21.920;2023-08-30T21:18:50;26.00;47.20
40368;DHT22;26075;43.320;21.920;2023-08-30T21:28:55;25.90;53.90
40368;DHT22;26075;43.320;21.920;2023-08-30T21:34:06;25.90;48.20
40368;DHT22;26075;43.320;21.920;2023-08-30T21:39:16;25.90;54.50
40368;DHT22;26075;43.320;21.920;2023-08-30T21:44:17;25.80;48.70
40368;DHT22;26075;43.320;21.920;2023-08-30T21:49:18;25.50;54.90
40368;DHT22;26075;43.320;21.920;2023-08-30T21:54:38;25.60;54.80
40368;DHT22;26075;43.320;21.920;2023-08-30T21:59:38;25.60;55.10
40368;DHT22;26075;43.320;21.920;2023-08-30T22:09:41;25.50;56.50
40368;DHT22;26075;43.320;21.920;2023-08-30T22:14:45;25.40;55.40
40368;DHT22;26075;43.320;21.920;2023-08-30T22:19:46;25.20;49.10
40368;DHT22;26075;43.320;21.920;2023-08-30T22:24:47;25.00;55.50
40368;DHT22;26075;43.320;21.920;2023-08-30T22:29:47;25.10;50.10
40368;DHT22;26075;43.320;21.920;2023-08-30T22:34:51;25.10;50.20
40368;DHT22;26075;43.320;21.920;2023-08-30T22:39:52;25.20;50.30
40368;DHT22;26075;43.320;21.920;2023-08-30T22:49:54;25.20;49.50
40368;DHT22;26075;43.320;21.920;2023-08-30T22:54:54;25.20;57.10
40368;DHT22;26075;43.320;21.920;2023-08-30T22:59:55;25.10;56.60
40368;DHT22;26075;43.320;21.920;2023-08-30T23:04:56;25.10;56.80
40368;DHT22;26075;43.320;21.920;2023-08-30T23:09:57;25.00;56.60
40368;DHT22;26075;43.320;21.920;2023-08-30T23:14:57;25.00;50.80
40368;DHT22;26075;43.320;21.920;2023-08-30T23:19:58;25.00;50.30
40368;DHT22;26075;43.320;21.920;2023-08-30T23:25:00;25.00;51.10
40368;DHT22;26075;43.320;21.920;2023-08-30T23:30:01;24.70;57.40
40368;DHT22;26075;43.320;21.920;2023-08-30T23:40:08;21.10;49.00
40368;DHT22;26075;43.320;21.920;2023-08-30T23:50:12;24.80;57.50
40368;DHT22;26075;43.320;21.920;2023-08-30T23:55:13;24.70;57.90
